sensor_id;sensor_type;location;lat;lon;timestamp;P1;durP1;ratioP1;P2;durP2;ratioP2
60352;SDS011;46196;52.970;6.954;2023-02-22T00:00:58;50.75;;;18.08;;
60352;SDS011;46196;52.970;6.954;2023-02-22T00:03:31;60.72;;;20.25;;
60352;SDS011;46196;52.970;6.954;2023-02-22T00:06:00;56.03;;;19.55;;
60352;SDS011;46196;52.970;6.954;2023-02-22T00:08:30;58.72;;;19.10;;
60352;SDS011;46196;52.970;6.954;2023-02-22T00:10:57;62.20;;;20.17;;
60352;SDS011;46196;52.970;6.954;2023-02-22T00:13:23;59.55;;;20.13;;
60352;SDS011;46196;52.970;6.954;2023-02-22T00:15:53;54.35;;;18.58;;
60352;SDS011;46196;52.970;6.954;2023-02-22T00:18:19;53.88;;;18.17;;
60352;SDS011;46196;52.970;6.954;2023-02-22T00:20:45;63.88;;;19.10;;
60352;SDS011;46196;52.970;6.954;2023-02-22T00:23:17;58.45;;;20.45;;
60352;SDS011;46196;52.970;6.954;2023-02-22T00:25:43;61.33;;;19.42;;
60352;SDS011;46196;52.970;6.954;2023-02-22T00:28:10;57.33;;;20.17;;
60352;SDS011;46196;52.970;6.954;2023-02-22T00:30:36;50.88;;;17.95;;
60352;SDS011;46196;52.970;6.954;2023-02-22T00:33:02;55.42;;;18.17;;
60352;SDS011;46196;52.970;6.954;2023-02-22T00:35:30;51.53;;;18.73;;
60352;SDS011;46196;52.970;6.954;2023-02-22T00:37:57;48.10;;;18.30;;
60352;SDS011;46196;52.970;6.954;2023-02-22T00:40:25;49.75;;;17.65;;
60352;SDS011;46196;52.970;6.954;2023-02-22T00:42:51;50.70;;;17.50;;
60352;SDS011;46196;52.970;6.954;2023-02-22T00:45:19;51.25;;;17.88;;
60352;SDS011;46196;52.970;6.954;2023-02-22T00:47:46;48.80;;;18.00;;
60352;SDS011;46196;52.970;6.954;2023-02-22T00:50:12;47.33;;;17.88;;
60352;SDS011;46196;52.970;6.954;2023-02-22T00:52:38;55.08;;;18.40;;
60352;SDS011;46196;52.970;6.954;2023-02-22T00:55:05;49.13;;;17.35;;
60352;SDS011;46196;52.970;6.954;2023-02-22T00:57:32;63.17;;;20.67;;
60352;SDS011;46196;52.970;6.954;2023-02-22T01:00:05;57.47;;;20.80;;
60352;SDS011;46196;52.970;6.954;2023-02-22T01:02:40;56.17;;;21.00;;
60352;SDS011;46196;52.970;6.954;2023-02-22T01:05:07;56.75;;;19.00;;
60352;SDS011;46196;52.970;6.954;2023-02-22T01:07:34;62.08;;;20.50;;
60352;SDS011;46196;52.970;6.954;2023-02-22T01:10:01;59.10;;;19.73;;
60352;SDS011;46196;52.970;6.954;2023-02-22T01:12:27;60.95;;;21.85;;
60352;SDS011;46196;52.970;6.954;2023-02-22T01:14:54;66.20;;;21.15;;
60352;SDS011;46196;52.970;6.954;2023-02-22T01:17:23;56.78;;;18.25;;
60352;SDS011;46196;52.970;6.954;2023-02-22T01:19:50;50.22;;;18.63;;
60352;SDS011;46196;52.970;6.954;2023-02-22T01:22:17;51.90;;;20.13;;
60352;SDS011;46196;52.970;6.954;2023-02-22T01:24:43;48.03;;;17.60;;
60352;SDS011;46196;52.970;6.954;2023-02-22T01:27:10;50.70;;;18.27;;
60352;SDS011;46196;52.970;6.954;2023-02-22T01:29:36;62.47;;;21.40;;
60352;SDS011;46196;52.970;6.954;2023-02-22T01:32:03;53.03;;;18.20;;
60352;SDS011;46196;52.970;6.954;2023-02-22T01:34:30;52.70;;;18.10;;
60352;SDS011;46196;52.970;6.954;2023-02-22T01:36:57;50.42;;;19.15;;
60352;SDS011;46196;52.970;6.954;2023-02-22T01:39:23;50.88;;;18.17;;
60352;SDS011;46196;52.970;6.954;2023-02-22T01:41:50;47.90;;;17.23;;
60352;SDS011;46196;52.970;6.954;2023-02-22T01:46:46;52.78;;;18.00;;
60352;SDS011;46196;52.970;6.954;2023-02-22T01:49:12;50.63;;;16.75;;
60352;SDS011;46196;52.970;6.954;2023-02-22T01:51:40;48.92;;;16.52;;
60352;SDS011;46196;52.970;6.954;2023-02-22T01:54:19;48.97;;;18.17;;
60352;SDS011;46196;52.970;6.954;2023-02-22T01:56:53;49.70;;;18.25;;
60352;SDS011;46196;52.970;6.954;2023-02-22T01:59:24;45.13;;;16.95;;
60352;SDS011;46196;52.970;6.954;2023-02-22T02:01:50;46.35;;;17.10;;
60352;SDS011;46196;52.970;6.954;2023-02-22T02:04:19;50.53;;;16.98;;
60352;SDS011;46196;52.970;6.954;2023-02-22T02:06:50;46.03;;;17.00;;
60352;SDS011;46196;52.970;6.954;2023-02-22T02:09:23;47.47;;;16.92;;
60352;SDS011;46196;52.970;6.954;2023-02-22T02:11:54;47.65;;;16.50;;
60352;SDS011;46196;52.970;6.954;2023-02-22T02:14:20;45.60;;;16.95;;
60352;SDS011;46196;52.970;6.954;2023-02-22T02:16:47;48.35;;;18.30;;
60352;SDS011;46196;52.970;6.954;2023-02-22T02:27:55;51.20;;;19.42;;
60352;SDS011;46196;52.970;6.954;2023-02-22T02:33:09;49.58;;;18.10;;
60352;SDS011;46196;52.970;6.954;2023-02-22T02:35:53;52.08;;;18.17;;
60352;SDS011;46196;52.970;6.954;2023-02-22T02:38:32;52.03;;;17.13;;
60352;SDS011;46196;52.970;6.954;2023-02-22T02:41:08;55.70;;;19.02;;
60352;SDS011;46196;52.970;6.954;2023-02-22T02:43:42;51.35;;;17.45;;
60352;SDS011;46196;52.970;6.954;2023-02-22T02:46:15;45.72;;;16.35;;
60352;SDS011;46196;52.970;6.954;2023-02-22T02:48:48;55.28;;;19.20;;
60352;SDS011;46196;52.970;6.954;2023-02-22T02:51:18;52.08;;;18.42;;
60352;SDS011;46196;52.970;6.954;2023-02-22T02:53:46;60.25;;;19.33;;
60352;SDS011;46196;52.970;6.954;2023-02-22T02:56:15;59.80;;;18.83;;
60352;SDS011;46196;52.970;6.954;2023-02-22T02:58:48;54.38;;;17.85;;
60352;SDS011;46196;52.970;6.954;2023-02-22T03:01:26;53.97;;;18.63;;
60352;SDS011;46196;52.970;6.954;2023-02-22T03:09:12;52.15;;;18.25;;
60352;SDS011;46196;52.970;6.954;2023-02-22T03:16:44;52.60;;;18.35;;
60352;SDS011;46196;52.970;6.954;2023-02-22T03:19:12;55.67;;;18.67;;
60352;SDS011;46196;52.970;6.954;2023-02-22T03:26:59;52.72;;;18.77;;
60352;SDS011;46196;52.970;6.954;2023-02-22T03:29:27;49.95;;;17.55;;
60352;SDS011;46196;52.970;6.954;2023-02-22T03:31:59;53.95;;;18.52;;
60352;SDS011;46196;52.970;6.954;2023-02-22T03:34:28;48.75;;;16.92;;
60352;SDS011;46196;52.970;6.954;2023-02-22T03:36:57;52.85;;;17.38;;
60352;SDS011;46196;52.970;6.954;2023-02-22T03:39:26;55.65;;;19.08;;
60352;SDS011;46196;52.970;6.954;2023-02-22T03:41:56;51.05;;;19.08;;
60352;SDS011;46196;52.970;6.954;2023-02-22T03:44:23;49.50;;;17.98;;
60352;SDS011;46196;52.970;6.954;2023-02-22T03:46:50;57.05;;;19.13;;
60352;SDS011;46196;52.970;6.954;2023-02-22T03:50:04;53.75;;;18.60;;
60352;SDS011;46196;52.970;6.954;2023-02-22T03:52:18;60.67;;;19.35;;
60352;SDS011;46196;52.970;6.954;2023-02-22T03:54:47;62.55;;;19.58;;
60352;SDS011;46196;52.970;6.954;2023-02-22T03:57:24;60.00;;;19.17;;
60352;SDS011;46196;52.970;6.954;2023-02-22T03:59:51;53.97;;;19.73;;
60352;SDS011;46196;52.970;6.954;2023-02-22T04:02:17;55.58;;;18.45;;
60352;SDS011;46196;52.970;6.954;2023-02-22T04:04:44;58.00;;;19.67;;
60352;SDS011;46196;52.970;6.954;2023-02-22T04:07:11;54.83;;;19.40;;
60352;SDS011;46196;52.970;6.954;2023-02-22T04:09:37;59.67;;;19.83;;
60352;SDS011;46196;52.970;6.954;2023-02-22T04:12:03;56.45;;;19.83;;
60352;SDS011;46196;52.970;6.954;2023-02-22T04:14:29;63.78;;;20.55;;
60352;SDS011;46196;52.970;6.954;2023-02-22T04:16:57;61.00;;;20.38;;
60352;SDS011;46196;52.970;6.954;2023-02-22T04:19:23;61.53;;;20.15;;
60352;SDS011;46196;52.970;6.954;2023-02-22T04:21:49;64.45;;;20.88;;
60352;SDS011;46196;52.970;6.954;2023-02-22T04:24:15;62.65;;;19.83;;
60352;SDS011;46196;52.970;6.954;2023-02-22T04:26:41;56.80;;;19.17;;
60352;SDS011;46196;52.970;6.954;2023-02-22T04:29:08;57.95;;;20.52;;
60352;SDS011;46196;52.970;6.954;2023-02-22T04:31:34;69.20;;;22.23;;
60352;SDS011;46196;52.970;6.954;2023-02-22T04:34:00;67.82;;;22.50;;
60352;SDS011;46196;52.970;6.954;2023-02-22T04:36:27;64.15;;;22.33;;
60352;SDS011;46196;52.970;6.954;2023-02-22T04:38:56;66.57;;;22.83;;
60352;SDS011;46196;52.970;6.954;2023-02-22T04:41:22;72.32;;;21.65;;
60352;SDS011;46196;52.970;6.954;2023-02-22T04:43:48;61.95;;;21.67;;
60352;SDS011;46196;52.970;6.954;2023-02-22T04:46:15;77.65;;;23.95;;
60352;SDS011;46196;52.970;6.954;2023-02-22T04:48:41;68.25;;;23.42;;
60352;SDS011;46196;52.970;6.954;2023-02-22T04:51:07;69.10;;;21.95;;
60352;SDS011;46196;52.970;6.954;2023-02-22T04:53:34;71.30;;;24.95;;
60352;SDS011;46196;52.970;6.954;2023-02-22T04:56:00;72.22;;;22.45;;
60352;SDS011;46196;52.970;6.954;2023-02-22T04:58:26;69.38;;;24.50;;
60352;SDS011;46196;52.970;6.954;2023-02-22T05:00:53;71.93;;;23.13;;
60352;SDS011;46196;52.970;6.954;2023-02-22T05:03:19;65.40;;;23.33;;
60352;SDS011;46196;52.970;6.954;2023-02-22T05:05:45;63.42;;;21.33;;
60352;SDS011;46196;52.970;6.954;2023-02-22T05:08:11;69.10;;;22.02;;
60352;SDS011;46196;52.970;6.954;2023-02-22T05:10:37;71.35;;;22.13;;
60352;SDS011;46196;52.970;6.954;2023-02-22T05:13:03;67.07;;;22.80;;
60352;SDS011;46196;52.970;6.954;2023-02-22T05:15:30;68.90;;;26.08;;
60352;SDS011;46196;52.970;6.954;2023-02-22T05:17:56;71.50;;;25.10;;
60352;SDS011;46196;52.970;6.954;2023-02-22T05:20:24;76.55;;;25.60;;
60352;SDS011;46196;52.970;6.954;2023-02-22T05:22:52;78.53;;;26.90;;
60352;SDS011;46196;52.970;6.954;2023-02-22T05:25:18;79.15;;;24.15;;
60352;SDS011;46196;52.970;6.954;2023-02-22T05:27:48;83.78;;;28.40;;
60352;SDS011;46196;52.970;6.954;2023-02-22T05:30:14;75.78;;;25.70;;
60352;SDS011;46196;52.970;6.954;2023-02-22T05:32:40;91.15;;;27.65;;
60352;SDS011;46196;52.970;6.954;2023-02-22T05:35:07;82.85;;;26.55;;
60352;SDS011;46196;52.970;6.954;2023-02-22T05:37:33;81.32;;;26.45;;
60352;SDS011;46196;52.970;6.954;2023-02-22T05:39:59;83.55;;;27.38;;
60352;SDS011;46196;52.970;6.954;2023-02-22T05:42:25;84.32;;;29.08;;
60352;SDS011;46196;52.970;6.954;2023-02-22T05:44:52;87.68;;;28.65;;
60352;SDS011;46196;52.970;6.954;2023-02-22T05:47:18;83.32;;;28.38;;
60352;SDS011;46196;52.970;6.954;2023-02-22T05:49:56;93.07;;;29.60;;
60352;SDS011;46196;52.970;6.954;2023-02-22T05:52:23;96.82;;;28.60;;
60352;SDS011;46196;52.970;6.954;2023-02-22T05:54:49;98.25;;;29.92;;
60352;SDS011;46196;52.970;6.954;2023-02-22T05:57:15;96.72;;;29.90;;
60352;SDS011;46196;52.970;6.954;2023-02-22T05:59:41;91.75;;;30.08;;
60352;SDS011;46196;52.970;6.954;2023-02-22T06:02:07;85.50;;;27.75;;
60352;SDS011;46196;52.970;6.954;2023-02-22T06:04:34;89.05;;;29.17;;
60352;SDS011;46196;52.970;6.954;2023-02-22T06:07:00;83.88;;;27.38;;
60352;SDS011;46196;52.970;6.954;2023-02-22T06:09:26;85.70;;;27.38;;
60352;SDS011;46196;52.970;6.954;2023-02-22T06:11:52;93.03;;;30.77;;
60352;SDS011;46196;52.970;6.954;2023-02-22T06:14:19;89.05;;;28.15;;
60352;SDS011;46196;52.970;6.954;2023-02-22T06:16:50;91.03;;;29.58;;
60352;SDS011;46196;52.970;6.954;2023-02-22T06:19:16;93.65;;;29.25;;
60352;SDS011;46196;52.970;6.954;2023-02-22T06:21:53;93.57;;;28.77;;
60352;SDS011;46196;52.970;6.954;2023-02-22T06:24:19;95.75;;;30.70;;
60352;SDS011;46196;52.970;6.954;2023-02-22T06:26:45;100.47;;;31.88;;
60352;SDS011;46196;52.970;6.954;2023-02-22T06:29:11;100.30;;;32.55;;
60352;SDS011;46196;52.970;6.954;2023-02-22T06:31:37;91.82;;;28.65;;
60352;SDS011;46196;52.970;6.954;2023-02-22T06:34:04;82.25;;;27.90;;
60352;SDS011;46196;52.970;6.954;2023-02-22T06:36:30;98.65;;;29.85;;
60352;SDS011;46196;52.970;6.954;2023-02-22T06:38:56;104.00;;;30.75;;
60352;SDS011;46196;52.970;6.954;2023-02-22T06:41:22;94.10;;;29.40;;
60352;SDS011;46196;52.970;6.954;2023-02-22T06:43:48;105.07;;;30.98;;
60352;SDS011;46196;52.970;6.954;2023-02-22T06:46:14;106.65;;;31.20;;
60352;SDS011;46196;52.970;6.954;2023-02-22T06:48:41;91.95;;;29.92;;
60352;SDS011;46196;52.970;6.954;2023-02-22T06:51:07;94.35;;;31.02;;
60352;SDS011;46196;52.970;6.954;2023-02-22T06:53:34;93.45;;;28.88;;
60352;SDS011;46196;52.970;6.954;2023-02-22T06:56:00;107.13;;;30.55;;
60352;SDS011;46196;52.970;6.954;2023-02-22T06:58:26;93.50;;;31.58;;
60352;SDS011;46196;52.970;6.954;2023-02-22T07:00:53;92.80;;;29.98;;
60352;SDS011;46196;52.970;6.954;2023-02-22T07:03:18;99.55;;;29.50;;
60352;SDS011;46196;52.970;6.954;2023-02-22T07:05:45;95.95;;;28.85;;
60352;SDS011;46196;52.970;6.954;2023-02-22T07:08:11;98.75;;;32.53;;
60352;SDS011;46196;52.970;6.954;2023-02-22T07:10:38;100.45;;;32.15;;
60352;SDS011;46196;52.970;6.954;2023-02-22T07:13:05;113.00;;;35.33;;
60352;SDS011;46196;52.970;6.954;2023-02-22T07:15:32;99.38;;;31.67;;
60352;SDS011;46196;52.970;6.954;2023-02-22T07:17:58;94.10;;;29.52;;
60352;SDS011;46196;52.970;6.954;2023-02-22T07:20:25;97.25;;;30.67;;
60352;SDS011;46196;52.970;6.954;2023-02-22T07:22:51;93.88;;;29.13;;
60352;SDS011;46196;52.970;6.954;2023-02-22T07:25:18;97.60;;;30.48;;
60352;SDS011;46196;52.970;6.954;2023-02-22T07:27:44;96.22;;;30.23;;
60352;SDS011;46196;52.970;6.954;2023-02-22T07:30:30;96.18;;;30.73;;
60352;SDS011;46196;52.970;6.954;2023-02-22T07:32:57;91.18;;;28.65;;
60352;SDS011;46196;52.970;6.954;2023-02-22T07:35:27;101.10;;;30.65;;
60352;SDS011;46196;52.970;6.954;2023-02-22T07:37:54;92.03;;;27.67;;
60352;SDS011;46196;52.970;6.954;2023-02-22T07:40:20;103.47;;;29.05;;
60352;SDS011;46196;52.970;6.954;2023-02-22T07:45:19;87.35;;;27.23;;
60352;SDS011;46196;52.970;6.954;2023-02-22T07:47:46;81.60;;;26.75;;
60352;SDS011;46196;52.970;6.954;2023-02-22T07:50:13;94.75;;;26.77;;
60352;SDS011;46196;52.970;6.954;2023-02-22T07:52:39;88.57;;;26.55;;
60352;SDS011;46196;52.970;6.954;2023-02-22T07:55:05;83.88;;;28.23;;
60352;SDS011;46196;52.970;6.954;2023-02-22T07:57:31;96.32;;;29.00;;
60352;SDS011;46196;52.970;6.954;2023-02-22T07:59:58;96.68;;;27.60;;
60352;SDS011;46196;52.970;6.954;2023-02-22T08:02:24;98.97;;;29.10;;
60352;SDS011;46196;52.970;6.954;2023-02-22T08:04:51;98.95;;;30.27;;
60352;SDS011;46196;52.970;6.954;2023-02-22T08:07:17;93.50;;;30.10;;
60352;SDS011;46196;52.970;6.954;2023-02-22T08:09:43;93.50;;;29.13;;
60352;SDS011;46196;52.970;6.954;2023-02-22T08:12:09;96.70;;;30.65;;
60352;SDS011;46196;52.970;6.954;2023-02-22T08:14:35;102.78;;;32.40;;
60352;SDS011;46196;52.970;6.954;2023-02-22T08:17:01;92.18;;;26.95;;
60352;SDS011;46196;52.970;6.954;2023-02-22T08:19:27;95.75;;;29.45;;
60352;SDS011;46196;52.970;6.954;2023-02-22T08:21:54;82.13;;;27.35;;
60352;SDS011;46196;52.970;6.954;2023-02-22T08:24:20;90.95;;;28.63;;
60352;SDS011;46196;52.970;6.954;2023-02-22T08:26:46;94.18;;;28.75;;
60352;SDS011;46196;52.970;6.954;2023-02-22T08:29:12;94.63;;;26.83;;
60352;SDS011;46196;52.970;6.954;2023-02-22T08:31:41;87.43;;;29.65;;
60352;SDS011;46196;52.970;6.954;2023-02-22T08:34:07;90.93;;;30.33;;
60352;SDS011;46196;52.970;6.954;2023-02-22T08:36:33;89.82;;;28.75;;
60352;SDS011;46196;52.970;6.954;2023-02-22T08:38:59;83.95;;;27.00;;
60352;SDS011;46196;52.970;6.954;2023-02-22T08:41:26;81.63;;;25.92;;
60352;SDS011;46196;52.970;6.954;2023-02-22T08:43:52;78.47;;;25.42;;
60352;SDS011;46196;52.970;6.954;2023-02-22T08:46:18;81.72;;;27.02;;
60352;SDS011;46196;52.970;6.954;2023-02-22T08:48:50;78.03;;;25.55;;
60352;SDS011;46196;52.970;6.954;2023-02-22T08:51:17;77.10;;;26.35;;
60352;SDS011;46196;52.970;6.954;2023-02-22T08:53:43;85.00;;;26.10;;
60352;SDS011;46196;52.970;6.954;2023-02-22T08:56:09;86.13;;;25.80;;
60352;SDS011;46196;52.970;6.954;2023-02-22T08:58:35;81.90;;;25.60;;
60352;SDS011;46196;52.970;6.954;2023-02-22T09:01:02;87.78;;;26.20;;
60352;SDS011;46196;52.970;6.954;2023-02-22T09:03:28;74.85;;;24.88;;
60352;SDS011;46196;52.970;6.954;2023-02-22T09:05:54;75.78;;;23.52;;
60352;SDS011;46196;52.970;6.954;2023-02-22T09:08:20;72.40;;;24.33;;
60352;SDS011;46196;52.970;6.954;2023-02-22T09:10:48;80.63;;;25.48;;
60352;SDS011;46196;52.970;6.954;2023-02-22T09:13:14;91.50;;;26.02;;
60352;SDS011;46196;52.970;6.954;2023-02-22T09:15:40;78.60;;;25.65;;
60352;SDS011;46196;52.970;6.954;2023-02-22T09:18:07;84.63;;;24.35;;
60352;SDS011;46196;52.970;6.954;2023-02-22T09:20:33;79.93;;;24.02;;
60352;SDS011;46196;52.970;6.954;2023-02-22T09:23:00;71.57;;;23.90;;
60352;SDS011;46196;52.970;6.954;2023-02-22T09:25:29;83.28;;;24.77;;
60352;SDS011;46196;52.970;6.954;2023-02-22T09:27:55;77.28;;;23.63;;
60352;SDS011;46196;52.970;6.954;2023-02-22T09:30:29;75.70;;;23.55;;
60352;SDS011;46196;52.970;6.954;2023-02-22T09:32:57;73.90;;;23.77;;
60352;SDS011;46196;52.970;6.954;2023-02-22T09:35:23;69.60;;;21.88;;
60352;SDS011;46196;52.970;6.954;2023-02-22T09:37:57;66.68;;;20.58;;
60352;SDS011;46196;52.970;6.954;2023-02-22T09:40:24;65.15;;;21.98;;
60352;SDS011;46196;52.970;6.954;2023-02-22T09:45:26;59.85;;;20.88;;
60352;SDS011;46196;52.970;6.954;2023-02-22T09:47:55;62.50;;;21.98;;
60352;SDS011;46196;52.970;6.954;2023-02-22T09:50:23;66.10;;;20.98;;
60352;SDS011;46196;52.970;6.954;2023-02-22T09:52:52;66.55;;;21.77;;
60352;SDS011;46196;52.970;6.954;2023-02-22T09:57:58;62.97;;;22.10;;
60352;SDS011;46196;52.970;6.954;2023-02-22T10:00:32;58.65;;;20.38;;
60352;SDS011;46196;52.970;6.954;2023-02-22T10:05:50;70.85;;;23.70;;
60352;SDS011;46196;52.970;6.954;2023-02-22T10:08:17;71.15;;;22.05;;
60352;SDS011;46196;52.970;6.954;2023-02-22T10:10:45;70.18;;;22.08;;
60352;SDS011;46196;52.970;6.954;2023-02-22T10:18:48;66.90;;;23.70;;
60352;SDS011;46196;52.970;6.954;2023-02-22T10:24:29;76.95;;;26.08;;
60352;SDS011;46196;52.970;6.954;2023-02-22T10:27:02;80.68;;;23.98;;
60352;SDS011;46196;52.970;6.954;2023-02-22T10:29:31;74.38;;;23.83;;
60352;SDS011;46196;52.970;6.954;2023-02-22T10:32:02;79.22;;;25.80;;
60352;SDS011;46196;52.970;6.954;2023-02-22T10:34:31;78.07;;;24.42;;
60352;SDS011;46196;52.970;6.954;2023-02-22T10:37:15;77.65;;;24.13;;
60352;SDS011;46196;52.970;6.954;2023-02-22T10:39:43;72.07;;;22.73;;
60352;SDS011;46196;52.970;6.954;2023-02-22T10:42:12;81.20;;;24.60;;
60352;SDS011;46196;52.970;6.954;2023-02-22T10:44:39;68.88;;;23.80;;
60352;SDS011;46196;52.970;6.954;2023-02-22T10:47:07;87.13;;;24.80;;
60352;SDS011;46196;52.970;6.954;2023-02-22T10:49:43;80.60;;;22.67;;
60352;SDS011;46196;52.970;6.954;2023-02-22T10:52:21;70.72;;;22.40;;
60352;SDS011;46196;52.970;6.954;2023-02-22T10:54:48;76.43;;;24.23;;
60352;SDS011;46196;52.970;6.954;2023-02-22T10:57:19;82.25;;;26.08;;
60352;SDS011;46196;52.970;6.954;2023-02-22T10:59:54;72.88;;;22.52;;
60352;SDS011;46196;52.970;6.954;2023-02-22T11:02:31;72.43;;;22.85;;
60352;SDS011;46196;52.970;6.954;2023-02-22T11:05:00;82.25;;;24.33;;
60352;SDS011;46196;52.970;6.954;2023-02-22T11:07:35;81.10;;;24.38;;
60352;SDS011;46196;52.970;6.954;2023-02-22T11:10:02;77.47;;;22.65;;
60352;SDS011;46196;52.970;6.954;2023-02-22T11:12:33;72.65;;;23.08;;
60352;SDS011;46196;52.970;6.954;2023-02-22T11:17:51;81.05;;;25.55;;
60352;SDS011;46196;52.970;6.954;2023-02-22T11:20:23;78.53;;;25.70;;
60352;SDS011;46196;52.970;6.954;2023-02-22T11:22:58;74.90;;;25.52;;
60352;SDS011;46196;52.970;6.954;2023-02-22T11:25:29;76.90;;;25.55;;
60352;SDS011;46196;52.970;6.954;2023-02-22T11:31:13;67.35;;;23.00;;
60352;SDS011;46196;52.970;6.954;2023-02-22T11:33:56;67.57;;;22.40;;
60352;SDS011;46196;52.970;6.954;2023-02-22T11:36:31;66.20;;;22.52;;
60352;SDS011;46196;52.970;6.954;2023-02-22T11:39:03;76.78;;;23.67;;
60352;SDS011;46196;52.970;6.954;2023-02-22T11:41:35;70.43;;;23.35;;
60352;SDS011;46196;52.970;6.954;2023-02-22T11:46:57;73.80;;;24.85;;
60352;SDS011;46196;52.970;6.954;2023-02-22T11:49:34;64.60;;;22.80;;
60352;SDS011;46196;52.970;6.954;2023-02-22T12:00:43;76.93;;;24.65;;
60352;SDS011;46196;52.970;6.954;2023-02-22T12:06:49;80.95;;;26.80;;
60352;SDS011;46196;52.970;6.954;2023-02-22T12:09:32;73.70;;;25.40;;
60352;SDS011;46196;52.970;6.954;2023-02-22T12:12:17;78.75;;;26.92;;
60352;SDS011;46196;52.970;6.954;2023-02-22T12:20:31;75.78;;;27.00;;
60352;SDS011;46196;52.970;6.954;2023-02-22T12:23:22;80.72;;;27.33;;
60352;SDS011;46196;52.970;6.954;2023-02-22T12:25:56;73.72;;;26.80;;
60352;SDS011;46196;52.970;6.954;2023-02-22T12:28:33;79.50;;;26.95;;
60352;SDS011;46196;52.970;6.954;2023-02-22T12:31:12;73.05;;;25.80;;
60352;SDS011;46196;52.970;6.954;2023-02-22T12:36:46;67.43;;;24.60;;
60352;SDS011;46196;52.970;6.954;2023-02-22T12:39:23;68.47;;;25.15;;
60352;SDS011;46196;52.970;6.954;2023-02-22T12:41:54;67.88;;;26.52;;
60352;SDS011;46196;52.970;6.954;2023-02-22T12:44:27;64.90;;;24.38;;
60352;SDS011;46196;52.970;6.954;2023-02-22T12:47:03;65.32;;;24.63;;
60352;SDS011;46196;52.970;6.954;2023-02-22T12:49:37;64.50;;;24.50;;
60352;SDS011;46196;52.970;6.954;2023-02-22T12:52:15;67.25;;;25.30;;
60352;SDS011;46196;52.970;6.954;2023-02-22T12:57:17;71.13;;;25.00;;
60352;SDS011;46196;52.970;6.954;2023-02-22T13:05:46;71.10;;;25.85;;
60352;SDS011;46196;52.970;6.954;2023-02-22T13:08:27;69.85;;;26.75;;
60352;SDS011;46196;52.970;6.954;2023-02-22T13:16:17;68.18;;;25.48;;
60352;SDS011;46196;52.970;6.954;2023-02-22T13:29:20;70.18;;;27.17;;
60352;SDS011;46196;52.970;6.954;2023-02-22T13:40:40;67.30;;;26.33;;
60352;SDS011;46196;52.970;6.954;2023-02-22T13:54:02;71.57;;;27.20;;
60352;SDS011;46196;52.970;6.954;2023-02-22T13:56:33;73.05;;;28.17;;
60352;SDS011;46196;52.970;6.954;2023-02-22T13:59:00;64.35;;;26.55;;
60352;SDS011;46196;52.970;6.954;2023-02-22T14:01:41;67.93;;;28.10;;
60352;SDS011;46196;52.970;6.954;2023-02-22T14:06:53;62.55;;;23.23;;
60352;SDS011;46196;52.970;6.954;2023-02-22T14:17:39;60.83;;;23.48;;
60352;SDS011;46196;52.970;6.954;2023-02-22T14:22:44;56.90;;;22.95;;
60352;SDS011;46196;52.970;6.954;2023-02-22T14:28:03;53.15;;;23.25;;
60352;SDS011;46196;52.970;6.954;2023-02-22T14:30:35;57.38;;;24.77;;
60352;SDS011;46196;52.970;6.954;2023-02-22T14:33:03;53.30;;;22.10;;
60352;SDS011;46196;52.970;6.954;2023-02-22T14:36:07;60.65;;;23.75;;
60352;SDS011;46196;52.970;6.954;2023-02-22T14:38:33;53.00;;;23.30;;
60352;SDS011;46196;52.970;6.954;2023-02-22T14:40:59;48.17;;;21.13;;
60352;SDS011;46196;52.970;6.954;2023-02-22T14:43:26;52.65;;;23.08;;
60352;SDS011;46196;52.970;6.954;2023-02-22T14:45:57;50.88;;;21.85;;
60352;SDS011;46196;52.970;6.954;2023-02-22T14:59:20;54.67;;;22.55;;
60352;SDS011;46196;52.970;6.954;2023-02-22T15:04:53;51.08;;;20.75;;
60352;SDS011;46196;52.970;6.954;2023-02-22T15:07:23;45.70;;;21.77;;
60352;SDS011;46196;52.970;6.954;2023-02-22T15:10:13;50.35;;;21.23;;
60352;SDS011;46196;52.970;6.954;2023-02-22T15:13:15;53.35;;;20.17;;
60352;SDS011;46196;52.970;6.954;2023-02-22T15:15:54;45.20;;;19.92;;
60352;SDS011;46196;52.970;6.954;2023-02-22T15:18:32;47.15;;;20.67;;
60352;SDS011;46196;52.970;6.954;2023-02-22T15:21:06;44.67;;;19.23;;
60352;SDS011;46196;52.970;6.954;2023-02-22T15:23:55;46.17;;;20.17;;
60352;SDS011;46196;52.970;6.954;2023-02-22T15:26:34;42.03;;;19.13;;
60352;SDS011;46196;52.970;6.954;2023-02-22T15:29:17;43.78;;;19.55;;
60352;SDS011;46196;52.970;6.954;2023-02-22T15:31:45;46.55;;;20.08;;
60352;SDS011;46196;52.970;6.954;2023-02-22T15:36:45;45.13;;;19.83;;
60352;SDS011;46196;52.970;6.954;2023-02-22T15:44:39;46.15;;;19.73;;
60352;SDS011;46196;52.970;6.954;2023-02-22T15:47:10;46.80;;;20.30;;
60352;SDS011;46196;52.970;6.954;2023-02-22T15:49:40;45.08;;;18.90;;
60352;SDS011;46196;52.970;6.954;2023-02-22T15:52:07;42.28;;;19.20;;
60352;SDS011;46196;52.970;6.954;2023-02-22T15:54:41;46.95;;;18.92;;
60352;SDS011;46196;52.970;6.954;2023-02-22T15:59:42;45.60;;;20.45;;
60352;SDS011;46196;52.970;6.954;2023-02-22T16:02:18;49.63;;;21.27;;
60352;SDS011;46196;52.970;6.954;2023-02-22T16:04:45;47.92;;;18.55;;
60352;SDS011;46196;52.970;6.954;2023-02-22T16:07:12;48.20;;;19.90;;
60352;SDS011;46196;52.970;6.954;2023-02-22T16:09:48;50.85;;;19.90;;
60352;SDS011;46196;52.970;6.954;2023-02-22T16:14:47;50.35;;;20.20;;
60352;SDS011;46196;52.970;6.954;2023-02-22T16:17:25;49.67;;;19.55;;
60352;SDS011;46196;52.970;6.954;2023-02-22T16:20:44;48.47;;;20.83;;
60352;SDS011;46196;52.970;6.954;2023-02-22T16:22:46;42.50;;;18.80;;
60352;SDS011;46196;52.970;6.954;2023-02-22T16:27:48;50.38;;;21.05;;
60352;SDS011;46196;52.970;6.954;2023-02-22T16:32:43;48.53;;;21.65;;
60352;SDS011;46196;52.970;6.954;2023-02-22T16:35:09;46.17;;;19.10;;
60352;SDS011;46196;52.970;6.954;2023-02-22T16:37:45;46.75;;;19.75;;
60352;SDS011;46196;52.970;6.954;2023-02-22T16:43:03;43.97;;;19.50;;
60352;SDS011;46196;52.970;6.954;2023-02-22T16:45:36;43.28;;;17.55;;
60352;SDS011;46196;52.970;6.954;2023-02-22T16:48:10;47.70;;;19.65;;
60352;SDS011;46196;52.970;6.954;2023-02-22T16:50:45;42.72;;;18.80;;
60352;SDS011;46196;52.970;6.954;2023-02-22T16:53:11;42.25;;;17.70;;
60352;SDS011;46196;52.970;6.954;2023-02-22T16:55:42;45.15;;;18.52;;
60352;SDS011;46196;52.970;6.954;2023-02-22T16:58:15;41.00;;;17.58;;
60352;SDS011;46196;52.970;6.954;2023-02-22T17:00:43;54.20;;;24.17;;
60352;SDS011;46196;52.970;6.954;2023-02-22T17:03:10;47.85;;;21.27;;
60352;SDS011;46196;52.970;6.954;2023-02-22T17:05:39;44.75;;;20.10;;
60352;SDS011;46196;52.970;6.954;2023-02-22T17:08:05;54.03;;;24.90;;
60352;SDS011;46196;52.970;6.954;2023-02-22T17:10:31;56.15;;;27.05;;
60352;SDS011;46196;52.970;6.954;2023-02-22T17:12:58;58.97;;;27.85;;
60352;SDS011;46196;52.970;6.954;2023-02-22T17:15:26;59.80;;;28.85;;
60352;SDS011;46196;52.970;6.954;2023-02-22T17:17:52;72.15;;;32.80;;
60352;SDS011;46196;52.970;6.954;2023-02-22T17:20:18;63.10;;;30.63;;
60352;SDS011;46196;52.970;6.954;2023-02-22T17:22:57;51.13;;;23.67;;
60352;SDS011;46196;52.970;6.954;2023-02-22T17:25:29;54.05;;;25.15;;
60352;SDS011;46196;52.970;6.954;2023-02-22T17:27:58;46.47;;;20.40;;